createdAt,value
2023-05-25T00:03:40.404Z,19.77
2023-05-25T00:08:36.992Z,17.65
2023-05-25T00:13:34.631Z,17.10
2023-05-25T00:18:33.112Z,13.30
2023-05-25T00:28:26.139Z,11.82
2023-05-25T00:33:22.567Z,16.30
2023-05-25T00:38:20.183Z,14.02
2023-05-25T00:43:16.859Z,16.95
2023-05-25T00:48:14.257Z,10.25
2023-05-25T00:53:12.912Z,20.58
2023-05-25T00:58:11.638Z,14.02
2023-05-25T01:03:13.732Z,10.07
2023-05-25T01:08:12.089Z,15.32
2023-05-25T01:13:10.166Z,11.65
2023-05-25T01:18:06.586Z,14.73
2023-05-25T01:23:14.114Z,7.93
2023-05-25T01:28:17.873Z,11.13
2023-05-25T01:33:14.404Z,8.65
2023-05-25T01:38:11.486Z,11.10
2023-05-25T01:43:07.901Z,14.75
2023-05-25T01:48:16.468Z,13.75
2023-05-25T01:58:15.296Z,12.07
2023-05-25T02:03:12.275Z,14.30
2023-05-25T02:08:08.702Z,12.85
2023-05-25T02:13:05.184Z,12.63
2023-05-25T02:18:01.656Z,9.90
2023-05-25T02:22:58.165Z,11.32
2023-05-25T02:27:54.597Z,17.95
2023-05-25T02:32:51.079Z,15.18
2023-05-25T02:37:50.268Z,11.68
2023-05-25T02:42:47.901Z,9.70
2023-05-25T02:47:44.379Z,17.35
2023-05-25T02:52:40.869Z,36.38
2023-05-25T02:57:38.888Z,11.98
2023-05-25T03:02:35.359Z,14.40
2023-05-25T03:07:31.882Z,9.50
2023-05-25T03:12:28.286Z,11.32
2023-05-25T03:17:24.952Z,12.38
2023-05-25T03:22:21.492Z,12.05
2023-05-25T03:27:17.956Z,12.30
2023-05-25T03:32:14.431Z,8.88
2023-05-25T03:37:11.778Z,12.20
2023-05-25T03:42:08.188Z,8.35
2023-05-25T03:47:04.849Z,9.32
2023-05-25T03:52:01.400Z,8.30
2023-05-25T03:56:59.406Z,12.05
2023-05-25T04:01:55.972Z,9.35
2023-05-25T04:06:52.398Z,20.10
2023-05-25T04:11:48.832Z,13.13
2023-05-25T04:16:46.020Z,10.35
2023-05-25T04:21:42.613Z,7.38
2023-05-25T04:26:39.500Z,12.43
2023-05-25T04:31:36.051Z,9.75
2023-05-25T04:36:32.722Z,10.82
2023-05-25T04:41:29.969Z,13.48
2023-05-25T04:46:26.481Z,12.93
2023-05-25T04:51:23.072Z,13.23
2023-05-25T04:56:19.557Z,13.50
2023-05-25T05:01:16.561Z,12.60
2023-05-25T05:06:13.052Z,17.73
2023-05-25T05:11:10.262Z,27.70
2023-05-25T05:16:06.938Z,28.70
2023-05-25T05:21:03.441Z,23.83
2023-05-25T05:26:00.275Z,21.70
2023-05-25T05:30:57.932Z,22.60
2023-05-25T05:35:54.678Z,24.87
2023-05-25T05:40:51.514Z,22.85
2023-05-25T05:45:47.897Z,15.15
2023-05-25T05:50:44.282Z,16.95
2023-05-25T05:55:40.917Z,17.30
2023-05-25T06:00:37.661Z,24.63
2023-05-25T06:05:34.051Z,21.65
2023-05-25T06:10:30.505Z,24.38
2023-05-25T06:15:26.918Z,20.42
2023-05-25T06:20:23.428Z,24.45
2023-05-25T06:25:20.370Z,21.95
2023-05-25T06:30:16.927Z,25.98
2023-05-25T06:35:19.523Z,36.05
2023-05-25T06:40:16.681Z,28.80
2023-05-25T06:45:13.177Z,30.08
2023-05-25T06:50:11.157Z,26.63
2023-05-25T06:55:08.757Z,26.52
2023-05-25T07:00:08.119Z,20.27
2023-05-25T07:05:05.967Z,28.98
2023-05-25T07:10:03.931Z,28.70
2023-05-25T07:15:00.492Z,26.35
2023-05-25T07:19:57.217Z,28.75
2023-05-25T07:24:53.713Z,29.90
2023-05-25T07:29:50.091Z,25.92
2023-05-25T07:34:46.462Z,20.35
2023-05-25T07:39:42.875Z,22.83
2023-05-25T07:44:39.379Z,19.33
2023-05-25T07:49:35.870Z,25.23
2023-05-25T07:54:32.565Z,22.55
2023-05-25T07:59:28.972Z,18.08
2023-05-25T08:04:25.639Z,12.35
2023-05-25T08:09:22.511Z,18.27
2023-05-25T08:14:19.008Z,15.40
2023-05-25T08:19:15.396Z,18.60
2023-05-25T08:24:11.805Z,14.90
2023-05-25T08:29:08.242Z,12.25
2023-05-25T08:34:04.660Z,17.50
2023-05-25T08:39:01.185Z,15.02
2023-05-25T08:43:57.831Z,15.30
2023-05-25T08:48:58.808Z,15.77
2023-05-25T08:54:00.845Z,16.40
2023-05-25T08:59:09.512Z,16.02
2023-05-25T09:04:06.928Z,17.52
2023-05-25T09:09:07.762Z,14.87
2023-05-25T09:14:04.572Z,9.82
2023-05-25T09:19:01.774Z,12.10
2023-05-25T09:23:59.949Z,15.50
2023-05-25T09:28:56.538Z,13.70
2023-05-25T09:33:59.799Z,16.75
2023-05-25T09:38:56.595Z,13.35
2023-05-25T09:44:02.184Z,13.35
2023-05-25T09:49:09.612Z,20.35
2023-05-25T09:54:09.964Z,18.60
2023-05-25T09:59:06.949Z,18.63
2023-05-25T10:04:05.500Z,19.17
2023-05-25T10:09:05.273Z,17.17
2023-05-25T10:14:07.386Z,17.35
2023-05-25T10:19:17.595Z,16.35
2023-05-25T10:24:24.728Z,18.83
2023-05-25T10:29:24.941Z,11.68
2023-05-25T10:34:22.283Z,17.67
2023-05-25T10:39:20.475Z,17.20
2023-05-25T10:49:13.996Z,14.98
2023-05-25T10:54:13.776Z,9.77
2023-05-25T10:59:13.134Z,13.23
2023-05-25T11:04:09.524Z,13.63
2023-05-25T11:09:07.579Z,12.00
2023-05-25T11:14:04.012Z,15.70
2023-05-25T11:19:02.200Z,13.75
2023-05-25T11:29:14.421Z,11.07
2023-05-25T11:34:12.353Z,11.40
2023-05-25T11:39:20.491Z,10.85
2023-05-25T11:44:28.009Z,8.13
2023-05-25T11:49:27.542Z,9.57
2023-05-25T11:54:25.777Z,11.07
2023-05-25T12:04:22.445Z,11.63
2023-05-25T12:09:22.688Z,8.35
2023-05-25T12:14:20.753Z,16.55
2023-05-25T12:24:14.410Z,5.63
2023-05-25T12:29:10.861Z,8.52
2023-05-25T12:34:09.329Z,13.32
2023-05-25T12:39:07.284Z,18.30
2023-05-25T12:44:03.796Z,5.55
2023-05-25T12:49:00.227Z,7.63
2023-05-25T12:53:58.750Z,10.60
2023-05-25T12:58:55.384Z,11.07
2023-05-25T13:03:53.547Z,6.47
2023-05-25T13:08:49.979Z,5.22
2023-05-25T13:13:46.492Z,6.63
2023-05-25T13:18:42.970Z,6.30
2023-05-25T13:23:39.387Z,6.40
2023-05-25T13:28:35.856Z,9.60
2023-05-25T13:33:32.302Z,6.63
2023-05-25T13:38:30.220Z,14.02
2023-05-25T13:43:27.132Z,6.35
2023-05-25T13:48:23.774Z,7.35
2023-05-25T13:53:20.204Z,5.93
2023-05-25T13:58:16.744Z,7.88
2023-05-25T14:03:14.097Z,10.45
2023-05-25T14:08:12.715Z,6.93
2023-05-25T14:13:09.181Z,15.95
2023-05-25T14:18:05.707Z,11.23
2023-05-25T14:23:02.206Z,10.27
2023-05-25T14:27:58.632Z,11.23
2023-05-25T14:32:55.164Z,9.05
2023-05-25T14:37:51.778Z,11.38
2023-05-25T14:42:48.587Z,10.70
2023-05-25T14:47:45.043Z,13.25
2023-05-25T14:52:42.093Z,10.95
2023-05-25T14:57:38.741Z,9.33
2023-05-25T15:02:35.306Z,11.32
2023-05-25T15:07:31.988Z,8.57
2023-05-25T15:12:28.481Z,13.15
2023-05-25T15:17:24.960Z,14.13
2023-05-25T15:22:21.801Z,11.18
2023-05-25T15:27:18.247Z,14.30
2023-05-25T15:32:17.724Z,16.48
2023-05-25T15:37:14.286Z,14.90
2023-05-25T15:42:10.826Z,12.00
2023-05-25T15:47:07.303Z,12.48
2023-05-25T15:52:04.003Z,13.65
2023-05-25T15:57:02.045Z,11.15
2023-05-25T16:01:58.547Z,14.07
2023-05-25T16:06:55.111Z,11.68
2023-05-25T16:11:51.645Z,13.73
2023-05-25T16:16:48.560Z,14.52
2023-05-25T16:21:45.056Z,16.20
2023-05-25T16:26:41.496Z,15.32
2023-05-25T16:31:37.996Z,14.15
2023-05-25T16:36:34.497Z,11.65
2023-05-25T16:41:30.935Z,16.00
2023-05-25T16:46:27.470Z,19.67
2023-05-25T16:51:24.085Z,11.95
2023-05-25T16:56:21.491Z,17.17
2023-05-25T17:01:18.050Z,12.60
2023-05-25T17:06:15.678Z,20.10
2023-05-25T17:11:12.246Z,10.43
2023-05-25T17:16:08.792Z,16.52
2023-05-25T17:21:05.407Z,19.58
2023-05-25T17:26:01.904Z,15.10
2023-05-25T17:30:59.190Z,23.70
2023-05-25T17:35:55.630Z,15.85
2023-05-25T17:40:52.054Z,13.50
2023-05-25T17:45:48.485Z,13.93
2023-05-25T17:50:44.957Z,16.08
2023-05-25T17:55:41.409Z,19.00
2023-05-25T18:00:37.890Z,11.02
2023-05-25T18:05:34.376Z,21.02
2023-05-25T18:10:30.881Z,16.00
2023-05-25T18:15:27.321Z,16.77
2023-05-25T18:20:23.849Z,12.88
2023-05-25T18:25:20.324Z,16.92
2023-05-25T18:30:16.772Z,14.27
2023-05-25T18:35:13.255Z,16.10
2023-05-25T18:40:12.826Z,16.83
2023-05-25T18:45:09.661Z,22.70
2023-05-25T18:50:07.112Z,17.92
2023-05-25T18:55:04.069Z,17.75
2023-05-25T19:00:00.824Z,20.83
2023-05-25T19:04:57.558Z,20.45
2023-05-25T19:09:54.002Z,19.95
2023-05-25T19:14:50.466Z,20.02
2023-05-25T19:19:46.949Z,14.70
2023-05-25T19:24:46.950Z,26.60
2023-05-25T19:29:46.891Z,21.33
2023-05-25T19:39:39.698Z,21.02
2023-05-25T19:44:36.865Z,22.05
2023-05-25T19:49:33.486Z,23.92
2023-05-25T19:54:29.926Z,22.77
2023-05-25T19:59:28.944Z,19.67
2023-05-25T20:04:25.757Z,24.60
2023-05-25T20:09:30.546Z,20.80
2023-05-25T20:14:27.096Z,42.20
2023-05-25T20:19:23.624Z,17.10
2023-05-25T20:24:20.104Z,23.80
2023-05-25T20:29:16.540Z,23.27
2023-05-25T20:34:13.019Z,25.60
2023-05-25T20:39:09.761Z,26.60
2023-05-25T20:44:06.897Z,29.38
2023-05-25T20:49:03.569Z,30.98
2023-05-25T20:54:00.040Z,23.80
2023-05-25T20:58:57.515Z,16.30
2023-05-25T21:03:53.980Z,15.90
2023-05-25T21:08:50.829Z,34.35
2023-05-25T21:13:47.995Z,16.98
2023-05-25T21:18:44.475Z,31.83
2023-05-25T21:23:40.988Z,26.58
2023-05-25T21:28:37.469Z,16.92
2023-05-25T21:33:35.860Z,35.40
2023-05-25T21:38:32.474Z,33.17
2023-05-25T21:43:28.926Z,30.40
2023-05-25T21:48:25.530Z,22.30
2023-05-25T21:53:22.028Z,30.52
2023-05-25T21:58:19.107Z,24.38
2023-05-25T22:03:15.767Z,27.77
2023-05-25T22:08:12.397Z,24.38
2023-05-25T22:13:08.946Z,23.88
2023-05-25T22:18:06.291Z,28.15
2023-05-25T22:23:02.787Z,17.80
2023-05-25T22:27:59.293Z,19.52
2023-05-25T22:32:55.816Z,31.42
2023-05-25T22:37:52.325Z,27.02
2023-05-25T22:42:51.685Z,25.10
2023-05-25T22:47:48.422Z,26.67
2023-05-25T22:52:44.972Z,20.80
2023-05-25T22:57:41.421Z,26.80
2023-05-25T23:02:38.124Z,27.45
2023-05-25T23:07:34.657Z,22.40
2023-05-25T23:12:31.316Z,27.13
2023-05-25T23:17:27.779Z,26.25
2023-05-25T23:22:24.238Z,28.05
2023-05-25T23:27:20.791Z,27.52
2023-05-25T23:32:17.243Z,20.30
2023-05-25T23:37:13.697Z,31.20
2023-05-25T23:42:10.241Z,32.20
2023-05-25T23:47:07.114Z,22.52
2023-05-25T23:52:03.790Z,21.92
2023-05-25T23:57:00.281Z,35.47
